Time;durP1;ratioP1;P1;durP2;ratioP2;P2;SDS_P1;SDS_P2;PMS_P1;PMS_P2;Temp;Humidity;BMP_temperature;BMP_pressure;BME280_temperature;BME280_humidity;BME280_pressure;Samples;Min_cycle;Max_cycle;Signal;HPM_P1;HPM_P2
2023/01/18 00:00:27;;;;;;;3.00;2.77;;;19.40;40.70;;;;;;4949292;28;20874;-86
2023/01/18 00:02:53;;;;;;;3.23;3.03;;;19.40;40.70;;;;;;4955228;28;20649;-85
2023/01/18 00:05:21;;;;;;;3.43;3.13;;;19.40;40.70;;;;;;4940333;28;20484;-86
2023/01/18 00:07:47;;;;;;;2.73;2.53;;;19.40;40.80;;;;;;4949587;28;20459;-87
2023/01/18 00:10:13;;;;;;;3.03;2.83;;;19.40;40.70;;;;;;4957381;28;20445;-88
2023/01/18 00:12:38;;;;;;;3.07;2.87;;;19.40;40.70;;;;;;4956448;28;20494;-86
2023/01/18 00:15:05;;;;;;;3.30;3.10;;;19.40;40.70;;;;;;4955922;28;20674;-86
2023/01/18 00:17:30;;;;;;;3.10;2.90;;;19.40;40.70;;;;;;4959830;28;20225;-86
2023/01/18 00:19:56;;;;;;;3.30;3.10;;;19.40;40.70;;;;;;4956436;28;20448;-86
2023/01/18 00:22:21;;;;;;;2.70;2.50;;;19.40;40.70;;;;;;4958187;28;20217;-85
2023/01/18 00:24:47;;;;;;;3.33;3.13;;;19.40;40.70;;;;;;4933759;28;20232;-85
2023/01/18 00:27:12;;;;;;;3.10;2.80;;;19.40;40.70;;;;;;4956022;28;20331;-86
2023/01/18 00:29:38;;;;;;;3.50;3.23;;;19.40;40.70;;;;;;4958203;28;20272;-86
2023/01/18 00:32:04;;;;;;;2.37;2.27;;;19.40;40.70;;;;;;4959803;28;20283;-86
2023/01/18 00:34:30;;;;;;;3.00;2.70;;;19.40;40.70;;;;;;4955533;28;20918;-87
2023/01/18 00:36:55;;;;;;;3.23;3.03;;;19.40;40.70;;;;;;4941544;28;20476;-87
2023/01/18 00:39:21;;;;;;;2.87;2.67;;;19.40;40.70;;;;;;4938539;28;20225;-85
2023/01/18 00:44:31;;;;;;;2.80;2.60;;;19.40;40.70;;;;;;4957003;28;20283;-85
2023/01/18 00:46:56;;;;;;;3.03;2.83;;;19.40;40.80;;;;;;4957890;28;20433;-85
2023/01/18 00:49:22;;;;;;;3.00;2.80;;;19.40;40.70;;;;;;4948892;28;20235;-85
2023/01/18 00:51:49;;;;;;;3.37;3.17;;;19.40;40.70;;;;;;4921319;28;20234;-85
2023/01/18 00:54:14;;;;;;;3.33;3.13;;;19.40;40.60;;;;;;4920276;29;21272;-87
2023/01/18 00:56:40;;;;;;;3.37;3.17;;;19.40;40.60;;;;;;4922199;28;20554;-85
2023/01/18 00:59:06;;;;;;;3.00;2.80;;;19.40;40.60;;;;;;4911793;29;20273;-85
2023/01/18 01:01:31;;;;;;;3.70;3.43;;;19.40;40.60;;;;;;4931510;28;20237;-84
2023/01/18 01:06:44;;;;;;;2.97;2.77;;;19.40;41.40;;;;;;4938183;28;20732;-86
2023/01/18 01:09:28;;;;;;;3.17;2.97;;;19.40;40.60;;;;;;4937439;28;20458;-85
2023/01/18 01:26:06;;;;;;;3.10;2.90;;;19.40;40.60;;;;;;4935318;28;20453;-86
2023/01/18 01:28:38;;;;;;;2.67;2.53;;;19.40;40.70;;;;;;4937040;28;20463;-86
2023/01/18 01:31:06;;;;;;;3.13;2.93;;;19.40;40.60;;;;;;4935783;28;20922;-86
2023/01/18 01:33:33;;;;;;;3.10;2.90;;;19.40;40.70;;;;;;4936894;28;20486;-87
2023/01/18 01:36:02;;;;;;;3.17;2.97;;;19.40;40.70;;;;;;4931860;28;20442;-87
2023/01/18 01:38:28;;;;;;;2.73;2.63;;;19.40;40.60;;;;;;4937209;28;20422;-85
2023/01/18 01:41:07;;;;;;;3.10;2.90;;;19.40;40.60;;;;;;4934475;28;20440;-85
2023/01/18 01:43:40;;;;;;;2.83;2.63;;;19.40;40.60;;;;;;4937770;28;20221;-86
2023/01/18 01:46:22;;;;;;;2.70;2.50;;;19.40;40.60;;;;;;4936991;28;20425;-86
2023/01/18 01:48:47;;;;;;;3.20;3.00;;;19.40;40.60;;;;;;4935221;28;20446;-85
2023/01/18 01:51:17;;;;;;;3.27;2.83;;;19.40;40.60;;;;;;4935677;28;20439;-86
2023/01/18 01:53:43;;;;;;;2.50;2.30;;;19.40;40.60;;;;;;4935797;28;20232;-86
2023/01/18 01:56:10;;;;;;;2.70;2.50;;;19.40;40.60;;;;;;4930499;28;20434;-85
2023/01/18 01:58:36;;;;;;;3.20;3.00;;;19.40;40.60;;;;;;4939045;28;20460;-88
2023/01/18 02:01:01;;;;;;;2.83;2.63;;;19.40;40.60;;;;;;4939793;28;20421;-85
2023/01/18 02:03:29;;;;;;;3.40;3.20;;;19.40;40.60;;;;;;4922117;28;20245;-86
2023/01/18 02:06:08;;;;;;;2.90;2.70;;;19.40;40.50;;;;;;4938584;28;20276;-86
2023/01/18 02:08:33;;;;;;;3.70;3.30;;;19.40;40.50;;;;;;4925780;28;20452;-86
2023/01/18 02:10:59;;;;;;;3.00;2.80;;;19.40;40.50;;;;;;4933772;28;20443;-85
2023/01/18 02:13:25;;;;;;;2.50;2.40;;;19.40;40.60;;;;;;4939755;28;20252;-85
2023/01/18 02:16:15;;;;;;;3.17;2.97;;;19.40;40.50;;;;;;4940557;28;20669;-85
2023/01/18 02:19:16;;;;;;;3.30;3.10;;;19.40;40.50;;;;;;4939812;28;20442;-87
2023/01/18 02:21:45;;;;;;;3.50;3.30;;;19.40;40.60;;;;;;4940289;28;20411;-86
2023/01/18 02:24:31;;;;;;;3.00;2.80;;;19.40;40.50;;;;;;4922227;28;20472;-87
2023/01/18 02:26:59;;;;;;;2.83;2.63;;;19.30;40.50;;;;;;4939783;28;20867;-85
2023/01/18 02:30:00;;;;;;;2.73;2.63;;;19.30;40.50;;;;;;4939641;28;20426;-85
2023/01/18 02:32:35;;;;;;;3.00;2.80;;;19.30;40.50;;;;;;4940372;28;20562;-85
2023/01/18 02:35:08;;;;;;;3.13;2.93;;;19.40;40.60;;;;;;4938286;28;20438;-85
2023/01/18 02:37:41;;;;;;;2.67;2.57;;;19.30;40.50;;;;;;4943000;28;21395;-85
2023/01/18 02:40:36;;;;;;;2.80;2.60;;;19.40;40.50;;;;;;4939012;28;20422;-85
2023/01/18 02:48:40;;;;;;;3.20;3.00;;;19.30;40.50;;;;;;4939410;28;20442;-86
2023/01/18 02:51:06;;;;;;;3.20;3.00;;;19.30;40.50;;;;;;4938251;28;20462;-85
2023/01/18 02:53:40;;;;;;;3.17;3.07;;;19.30;40.50;;;;;;4940089;28;21086;-87
2023/01/18 02:56:09;;;;;;;3.40;3.20;;;19.30;40.50;;;;;;4940686;28;20440;-86
2023/01/18 02:58:45;;;;;;;2.90;2.70;;;19.30;40.50;;;;;;4945294;28;20449;-85
2023/01/18 03:01:21;;;;;;;3.10;3.00;;;19.30;40.40;;;;;;4945933;28;20455;-85
2023/01/18 03:03:48;;;;;;;3.17;2.97;;;19.30;40.40;;;;;;4946690;28;20455;-85
2023/01/18 03:06:14;;;;;;;3.10;2.90;;;19.30;40.30;;;;;;4946899;28;20471;-86
2023/01/18 03:08:47;;;;;;;2.97;2.77;;;19.30;40.30;;;;;;4947885;28;20434;-85
2023/01/18 03:11:34;;;;;;;2.90;2.70;;;19.40;40.40;;;;;;4946340;28;20244;-86
2023/01/18 03:14:10;;;;;;;3.10;2.90;;;19.30;40.40;;;;;;4946033;28;20795;-85
2023/01/18 03:16:57;;;;;;;3.27;3.07;;;19.30;41.10;;;;;;4943285;28;20445;-85
2023/01/18 03:20:08;;;;;;;3.13;2.93;;;19.30;40.30;;;;;;4944209;28;20499;-85
2023/01/18 03:25:32;;;;;;;3.60;3.40;;;19.30;40.40;;;;;;4945968;28;20998;-85
2023/01/18 03:33:43;;;;;;;3.17;2.97;;;19.30;40.40;;;;;;4945470;28;20437;-85
2023/01/18 03:36:22;;;;;;;3.20;3.00;;;19.30;40.40;;;;;;4945775;28;20437;-85
2023/01/18 03:39:20;;;;;;;3.03;2.67;;;19.30;40.40;;;;;;4945209;28;20490;-86
2023/01/18 03:41:52;;;;;;;3.43;3.13;;;19.30;40.30;;;;;;4936526;28;20479;-85
2023/01/18 03:44:28;;;;;;;3.00;2.80;;;19.30;40.40;;;;;;4944650;28;20583;-86
2023/01/18 03:46:55;;;;;;;3.23;3.03;;;19.30;40.30;;;;;;4947003;28;20418;-85
2023/01/18 03:49:20;;;;;;;3.13;2.93;;;19.30;40.40;;;;;;4943334;28;20442;-85
2023/01/18 03:52:12;;;;;;;3.03;2.83;;;19.30;40.30;;;;;;4945977;28;20446;-85
2023/01/18 03:55:08;;;;;;;3.27;3.07;;;19.30;41.10;;;;;;4944020;28;20740;-86
2023/01/18 03:57:53;;;;;;;3.07;2.87;;;19.30;40.30;;;;;;4947413;28;20450;-87
2023/01/18 04:00:19;;;;;;;2.80;2.60;;;19.30;40.30;;;;;;4942213;28;20554;-87
2023/01/18 04:02:47;;;;;;;3.40;3.20;;;19.30;40.40;;;;;;4945859;28;20470;-85
2023/01/18 04:05:14;;;;;;;3.00;2.80;;;19.30;40.30;;;;;;4928771;28;20945;-85
2023/01/18 04:07:40;;;;;;;3.00;2.80;;;19.30;40.30;;;;;;4943794;28;20570;-85
2023/01/18 04:10:06;;;;;;;2.60;2.50;;;19.30;40.30;;;;;;4943686;28;20452;-85
2023/01/18 04:12:33;;;;;;;2.60;2.50;;;19.30;40.20;;;;;;4946318;28;20771;-85
2023/01/18 04:14:58;;;;;;;3.13;2.93;;;19.30;40.30;;;;;;4944382;28;20231;-84
2023/01/18 04:17:24;;;;;;;3.50;3.30;;;19.30;40.20;;;;;;4945243;28;20443;-84
2023/01/18 04:19:50;;;;;;;2.90;2.80;;;19.30;40.20;;;;;;4940879;28;20839;-85
2023/01/18 04:22:15;;;;;;;2.83;2.63;;;19.30;40.20;;;;;;4946426;28;20246;-85
2023/01/18 04:24:41;;;;;;;3.23;3.03;;;19.30;40.20;;;;;;4941938;28;20673;-85
2023/01/18 04:27:07;;;;;;;3.07;2.87;;;19.30;40.20;;;;;;4944546;28;20221;-85
2023/01/18 04:29:32;;;;;;;2.80;2.60;;;19.30;40.20;;;;;;4945430;28;20225;-85
2023/01/18 04:31:58;;;;;;;3.07;2.87;;;19.30;40.20;;;;;;4945741;28;20232;-85
2023/01/18 04:34:23;;;;;;;2.90;2.70;;;19.30;40.20;;;;;;4942782;28;21316;-85
2023/01/18 04:36:50;;;;;;;3.33;3.13;;;19.30;40.20;;;;;;4944967;28;20230;-85
2023/01/18 04:39:16;;;;;;;3.17;2.97;;;19.30;40.20;;;;;;4944319;28;20232;-85
2023/01/18 04:41:41;;;;;;;3.40;3.20;;;19.30;40.20;;;;;;4942311;28;20430;-85
2023/01/18 04:44:07;;;;;;;3.03;2.83;;;19.30;40.10;;;;;;4945016;28;20248;-85
2023/01/18 04:46:33;;;;;;;3.03;2.83;;;19.30;40.10;;;;;;4946480;28;20312;-85
2023/01/18 04:48:59;;;;;;;3.10;2.90;;;19.30;40.10;;;;;;4945162;28;20232;-86
2023/01/18 04:51:26;;;;;;;2.77;2.63;;;19.30;40.10;;;;;;4943888;28;20463;-85
2023/01/18 04:53:51;;;;;;;3.77;3.37;;;19.40;40.10;;;;;;4945527;28;20245;-85
2023/01/18 04:56:17;;;;;;;2.20;2.10;;;19.40;40.20;;;;;;4944260;28;21012;-85
2023/01/18 04:58:43;;;;;;;2.83;2.73;;;19.40;40.10;;;;;;4941856;28;20604;-85
2023/01/18 05:01:12;;;;;;;3.00;2.80;;;19.40;40.10;;;;;;4942237;28;20237;-85
2023/01/18 05:03:38;;;;;;;2.90;2.80;;;19.40;40.10;;;;;;4943094;28;20605;-86
2023/01/18 05:06:13;;;;;;;2.67;2.57;;;19.40;40.10;;;;;;4945773;28;20426;-86
2023/01/18 05:08:39;;;;;;;2.33;2.23;;;19.40;40.00;;;;;;4942507;28;20463;-84
2023/01/18 05:11:10;;;;;;;2.50;2.30;;;19.40;40.00;;;;;;4942674;28;20442;-84
2023/01/18 05:13:37;;;;;;;2.70;2.50;;;19.40;40.00;;;;;;4943981;28;20438;-85
2023/01/18 05:16:04;;;;;;;2.43;2.33;;;19.50;40.00;;;;;;4942672;28;20456;-87
2023/01/18 05:18:30;;;;;;;3.20;3.00;;;19.50;39.90;;;;;;4927117;29;20462;-85
2023/01/18 05:20:55;;;;;;;2.90;2.80;;;19.50;39.90;;;;;;4943001;28;20437;-85
2023/01/18 05:23:21;;;;;;;2.90;2.70;;;19.50;39.90;;;;;;4944677;28;20440;-86
2023/01/18 05:25:55;;;;;;;2.60;2.50;;;19.50;39.90;;;;;;4943384;28;20681;-85
2023/01/18 05:28:23;;;;;;;2.63;2.43;;;19.50;39.90;;;;;;4928173;28;20225;-85
2023/01/18 05:30:49;;;;;;;2.77;2.67;;;19.50;39.90;;;;;;4940370;28;20449;-86
2023/01/18 05:33:16;;;;;;;2.80;2.60;;;19.50;39.90;;;;;;4927713;28;20455;-84
2023/01/18 05:35:55;;;;;;;2.60;2.43;;;19.50;39.90;;;;;;4942772;28;20308;-84
2023/01/18 05:38:21;;;;;;;2.57;2.47;;;19.50;39.90;;;;;;4941881;28;20447;-85
2023/01/18 05:40:51;;;;;;;2.40;2.30;;;19.50;40.00;;;;;;4941677;28;20465;-84
2023/01/18 05:43:17;;;;;;;2.77;2.57;;;19.50;39.90;;;;;;4936276;28;20435;-84
2023/01/18 05:45:42;;;;;;;2.83;2.63;;;19.50;39.90;;;;;;4941342;28;21159;-84
2023/01/18 05:48:10;;;;;;;2.77;2.57;;;19.50;39.90;;;;;;4943448;28;20605;-87
2023/01/18 05:50:38;;;;;;;3.43;3.20;;;19.50;40.00;;;;;;4940808;28;20245;-84
2023/01/18 05:53:03;;;;;;;2.37;2.27;;;19.50;39.90;;;;;;4939704;28;20426;-83
2023/01/18 05:55:29;;;;;;;2.80;2.60;;;19.50;40.00;;;;;;4908495;28;20410;-84
2023/01/18 05:57:54;;;;;;;3.00;2.80;;;19.50;39.90;;;;;;4942230;28;20230;-83
2023/01/18 06:00:20;;;;;;;2.57;2.37;;;19.50;39.90;;;;;;4940388;28;20582;-86
2023/01/18 06:02:46;;;;;;;2.33;2.13;;;19.50;39.90;;;;;;4943284;28;20229;-83
2023/01/18 06:05:11;;;;;;;2.70;2.57;;;19.50;39.90;;;;;;4940104;28;20550;-81
2023/01/18 06:07:37;;;;;;;2.60;2.40;;;19.50;39.90;;;;;;4942452;28;20244;-82
2023/01/18 06:10:03;;;;;;;2.47;2.30;;;19.50;39.80;;;;;;4938608;28;20268;-81
2023/01/18 06:12:29;;;;;;;2.57;2.40;;;19.50;39.90;;;;;;4939916;28;20709;-83
2023/01/18 06:14:54;;;;;;;2.83;2.63;;;19.50;39.80;;;;;;4942611;28;20463;-82
2023/01/18 06:17:20;;;;;;;2.73;2.53;;;19.50;39.80;;;;;;4942491;28;20229;-83
2023/01/18 06:19:46;;;;;;;2.63;2.53;;;19.50;39.80;;;;;;4943263;28;20701;-82
2023/01/18 06:22:11;;;;;;;2.70;2.50;;;19.50;39.80;;;;;;4933479;28;20529;-82
2023/01/18 06:24:37;;;;;;;3.67;2.87;;;19.50;39.80;;;;;;4864342;28;20812;-84
2023/01/18 06:27:03;;;;;;;4.37;3.97;;;19.50;39.80;;;;;;4873108;28;20221;-82
2023/01/18 06:29:29;;;;;;;3.90;3.53;;;19.50;39.60;;;;;;4927042;28;20226;-83
2023/01/18 06:31:54;;;;;;;2.50;2.30;;;19.50;39.60;;;;;;4932301;28;21319;-83
2023/01/18 06:34:20;;;;;;;2.90;2.70;;;19.60;39.70;;;;;;4939907;28;20225;-82
2023/01/18 06:36:45;;;;;;;2.70;2.50;;;19.50;39.50;;;;;;4938562;28;20280;-82
2023/01/18 06:39:11;;;;;;;2.77;2.67;;;19.50;39.50;;;;;;4932242;28;20292;-82
2023/01/18 06:41:36;;;;;;;3.30;3.00;;;19.50;39.60;;;;;;4938445;28;20236;-82
2023/01/18 06:44:02;;;;;;;2.70;2.50;;;19.50;39.60;;;;;;4941646;28;20240;-83
2023/01/18 06:46:28;;;;;;;3.53;3.30;;;19.50;39.60;;;;;;4937847;28;20231;-83
2023/01/18 06:48:53;;;;;;;2.40;2.30;;;19.50;39.60;;;;;;4940232;28;20225;-82
2023/01/18 06:51:20;;;;;;;2.47;2.37;;;19.50;39.70;;;;;;4944578;28;20291;-82
2023/01/18 06:53:46;;;;;;;3.20;3.00;;;19.50;39.70;;;;;;4944659;28;20237;-82
2023/01/18 06:56:13;;;;;;;2.83;2.63;;;19.50;39.70;;;;;;4915081;28;20446;-83
2023/01/18 06:58:39;;;;;;;2.60;2.40;;;19.50;39.60;;;;;;4932281;28;20449;-82
2023/01/18 07:01:04;;;;;;;3.03;2.83;;;19.50;39.70;;;;;;4940007;28;20866;-83
2023/01/18 07:03:31;;;;;;;2.77;2.57;;;19.50;39.70;;;;;;4940233;28;20712;-82
2023/01/18 07:05:58;;;;;;;2.63;2.50;;;19.50;39.70;;;;;;4939766;28;20222;-82
2023/01/18 07:08:25;;;;;;;2.80;2.60;;;19.50;39.70;;;;;;4919922;28;20518;-83
2023/01/18 07:10:52;;;;;;;2.90;2.50;;;19.50;39.70;;;;;;4939402;28;20463;-83
2023/01/18 07:13:18;;;;;;;2.60;2.40;;;19.50;39.70;;;;;;4935235;28;20502;-86
2023/01/18 07:15:44;;;;;;;3.10;2.90;;;19.50;39.60;;;;;;4940763;28;20434;-86
2023/01/18 07:18:10;;;;;;;2.93;2.73;;;19.50;39.70;;;;;;4944727;28;20470;-86
2023/01/18 07:20:35;;;;;;;2.80;2.60;;;19.50;39.70;;;;;;4943164;28;20221;-86
2023/01/18 07:23:03;;;;;;;3.07;2.87;;;19.50;39.70;;;;;;4936586;28;20225;-84
2023/01/18 07:25:28;;;;;;;2.60;2.50;;;19.50;39.70;;;;;;4934854;28;20401;-84
2023/01/18 07:27:56;;;;;;;2.53;2.40;;;19.50;39.70;;;;;;4931445;28;21360;-83
2023/01/18 07:30:22;;;;;;;2.73;2.53;;;19.50;39.70;;;;;;4925537;28;20233;-83
2023/01/18 07:32:49;;;;;;;2.83;2.50;;;19.50;39.70;;;;;;4928814;28;20477;-83
2023/01/18 07:35:17;;;;;;;2.50;2.30;;;19.50;39.60;;;;;;4940928;28;20364;-84
2023/01/18 07:37:51;;;;;;;2.87;2.67;;;19.50;39.60;;;;;;4941962;28;20468;-84
2023/01/18 07:40:16;;;;;;;2.90;2.70;;;19.50;39.70;;;;;;4940469;28;20455;-84
2023/01/18 07:42:42;;;;;;;3.67;2.57;;;19.50;39.60;;;;;;4939127;28;20481;-84
2023/01/18 07:45:08;;;;;;;2.60;2.30;;;19.50;39.60;;;;;;4942391;28;20320;-83
2023/01/18 07:47:34;;;;;;;2.90;2.70;;;19.50;39.60;;;;;;4943209;28;20229;-83
2023/01/18 07:50:00;;;;;;;2.67;2.57;;;19.50;39.60;;;;;;4939867;28;20553;-84
2023/01/18 07:52:26;;;;;;;2.63;2.43;;;19.50;39.60;;;;;;4941755;28;20482;-83
2023/01/18 07:54:51;;;;;;;2.80;2.60;;;19.50;39.70;;;;;;4939595;28;20294;-83
2023/01/18 07:57:17;;;;;;;2.73;2.60;;;19.50;39.60;;;;;;4939454;28;20277;-83
2023/01/18 07:59:42;;;;;;;2.63;2.43;;;19.50;39.60;;;;;;4938573;28;20238;-83
2023/01/18 08:02:11;;;;;;;2.53;2.43;;;19.50;39.70;;;;;;4942055;28;20236;-83
2023/01/18 08:04:37;;;;;;;2.30;2.20;;;19.50;39.60;;;;;;4938260;28;20272;-83
2023/01/18 08:07:02;;;;;;;2.63;2.30;;;19.50;39.60;;;;;;4940845;28;20569;-83
2023/01/18 08:09:28;;;;;;;2.67;2.47;;;19.50;39.60;;;;;;4938029;28;20221;-83
2023/01/18 08:11:54;;;;;;;2.90;2.70;;;19.50;39.60;;;;;;4941932;28;20705;-84
2023/01/18 08:14:20;;;;;;;2.40;2.30;;;19.50;39.60;;;;;;4938275;28;20224;-83
2023/01/18 08:16:45;;;;;;;2.97;2.77;;;19.50;39.60;;;;;;4936605;28;20525;-84
2023/01/18 08:19:11;;;;;;;3.87;2.97;;;19.50;39.60;;;;;;4937054;28;20229;-84
2023/01/18 08:21:36;;;;;;;2.70;2.60;;;19.50;39.60;;;;;;4938639;28;20672;-84
2023/01/18 08:24:02;;;;;;;2.57;2.47;;;19.50;39.60;;;;;;4938050;28;20233;-83
2023/01/18 08:26:28;;;;;;;3.23;3.03;;;19.50;39.60;;;;;;4938563;28;20225;-84
2023/01/18 08:28:55;;;;;;;2.60;2.40;;;19.50;39.60;;;;;;4938078;28;20617;-84
2023/01/18 08:31:20;;;;;;;2.53;2.33;;;19.50;39.60;;;;;;4937231;28;20633;-83
2023/01/18 08:33:47;;;;;;;2.63;2.53;;;19.50;39.70;;;;;;4935963;28;20422;-84
2023/01/18 08:36:21;;;;;;;2.73;2.57;;;19.50;39.60;;;;;;4941796;28;20950;-84
2023/01/18 08:38:52;;;;;;;2.23;2.13;;;19.50;39.60;;;;;;4937882;28;20435;-84
2023/01/18 08:41:19;;;;;;;2.43;2.30;;;19.50;39.60;;;;;;4924641;28;20457;-84
2023/01/18 08:43:49;;;;;;;2.30;2.10;;;19.50;39.60;;;;;;4923172;28;20517;-84
2023/01/18 08:46:15;;;;;;;2.70;2.50;;;19.50;39.60;;;;;;4939878;28;20455;-83
2023/01/18 08:48:40;;;;;;;2.57;2.40;;;19.50;39.60;;;;;;4937477;28;20435;-84
2023/01/18 08:51:06;;;;;;;2.47;2.37;;;19.50;39.60;;;;;;4938876;28;20726;-84
2023/01/18 08:53:32;;;;;;;3.10;2.90;;;19.40;40.20;;;;;;4939964;28;20268;-84
2023/01/18 08:55:57;;;;;;;2.73;2.53;;;19.40;39.40;;;;;;4941388;28;20280;-84
2023/01/18 08:58:23;;;;;;;2.57;2.37;;;19.40;39.50;;;;;;4939501;28;20225;-84
2023/01/18 09:00:49;;;;;;;2.63;2.43;;;19.40;39.40;;;;;;4933687;28;20225;-84
2023/01/18 09:03:21;;;;;;;2.70;2.50;;;19.50;39.50;;;;;;4938420;28;20278;-84
2023/01/18 09:05:46;;;;;;;2.63;2.53;;;19.40;39.40;;;;;;4935711;28;20463;-84
2023/01/18 09:08:12;;;;;;;2.87;2.67;;;19.50;39.50;;;;;;4938877;28;20474;-84
2023/01/18 09:10:37;;;;;;;2.37;2.27;;;19.50;39.50;;;;;;4936438;28;20233;-84
2023/01/18 09:13:04;;;;;;;2.60;2.40;;;19.40;39.40;;;;;;4936470;28;20222;-84
2023/01/18 09:15:30;;;;;;;2.57;2.40;;;19.50;39.50;;;;;;4940266;28;20221;-84
2023/01/18 09:17:55;;;;;;;2.57;2.40;;;19.40;39.40;;;;;;4936069;28;21998;-84
2023/01/18 09:20:21;;;;;;;2.70;2.50;;;19.40;39.40;;;;;;4939212;28;20220;-84
2023/01/18 09:22:47;;;;;;;2.10;2.00;;;19.50;39.50;;;;;;4937124;28;20284;-84
2023/01/18 09:25:13;;;;;;;2.60;2.50;;;19.40;39.40;;;;;;4939891;28;20221;-84
2023/01/18 09:27:38;;;;;;;2.60;2.40;;;19.40;39.30;;;;;;4939810;28;20598;-84
2023/01/18 09:30:05;;;;;;;4.27;2.40;;;19.50;39.50;;;;;;4937259;28;20329;-84
2023/01/18 09:32:31;;;;;;;1.90;1.80;;;19.40;39.30;;;;;;4937116;28;20222;-84
2023/01/18 09:34:56;;;;;;;2.57;2.37;;;19.50;39.50;;;;;;4937874;28;20443;-84
2023/01/18 09:37:22;;;;;;;2.50;2.40;;;19.40;39.30;;;;;;4940568;28;20228;-84
2023/01/18 09:39:48;;;;;;;2.40;2.20;;;19.40;39.30;;;;;;4938708;28;20357;-84
2023/01/18 09:42:43;;;;;;;2.90;2.50;;;19.40;39.30;;;;;;4939538;28;20564;-84
2023/01/18 09:45:34;;;;;;;2.20;2.10;;;19.50;39.30;;;;;;4927307;28;20279;-84
2023/01/18 09:48:04;;;;;;;2.00;1.90;;;19.40;39.30;;;;;;4920196;28;20453;-84
2023/01/18 09:50:37;;;;;;;2.37;2.27;;;19.50;39.50;;;;;;4919874;28;20952;-84
2023/01/18 09:53:05;;;;;;;2.37;2.27;;;19.40;39.30;;;;;;4921461;28;20454;-84
2023/01/18 09:55:58;;;;;;;2.63;2.43;;;19.50;39.30;;;;;;4925288;28;20459;-84
2023/01/18 09:59:02;;;;;;;2.40;2.20;;;19.40;39.30;;;;;;4923367;28;20441;-84
2023/01/18 10:01:32;;;;;;;2.60;2.40;;;19.40;39.30;;;;;;4895777;28;20426;-84
2023/01/18 10:04:05;;;;;;;2.00;1.90;;;19.40;39.30;;;;;;4925645;28;20441;-84
2023/01/18 10:06:57;;;;;;;2.03;1.93;;;19.40;39.30;;;;;;4921706;28;20434;-84
2023/01/18 10:09:32;;;;;;;2.40;2.30;;;19.50;39.40;;;;;;4921659;28;21008;-84
2023/01/18 10:12:03;;;;;;;2.20;2.10;;;19.40;39.30;;;;;;4922575;28;20473;-84
2023/01/18 10:14:53;;;;;;;1.90;1.80;;;19.40;39.30;;;;;;4921718;28;20463;-84
2023/01/18 10:17:21;;;;;;;2.03;1.93;;;19.50;39.30;;;;;;4921870;28;20491;-84
2023/01/18 10:19:48;;;;;;;2.60;2.40;;;19.50;39.30;;;;;;4922673;28;20461;-84
2023/01/18 10:22:31;;;;;;;1.83;1.73;;;19.40;39.30;;;;;;4925207;28;20964;-84
2023/01/18 10:25:08;;;;;;;2.10;2.00;;;19.40;39.20;;;;;;4918479;28;21091;-84
2023/01/18 10:28:03;;;;;;;2.30;2.20;;;19.40;39.20;;;;;;4921524;28;20507;-84
2023/01/18 10:31:06;;;;;;;1.93;1.83;;;19.40;39.20;;;;;;4915855;28;20499;-84
2023/01/18 10:33:38;;;;;;;2.07;1.87;;;19.40;39.30;;;;;;4921277;28;20430;-84
2023/01/18 10:36:15;;;;;;;1.77;1.67;;;19.50;39.30;;;;;;4925010;28;20459;-84
2023/01/18 10:38:42;;;;;;;2.83;2.63;;;19.40;39.20;;;;;;4919979;28;20438;-84
2023/01/18 10:41:18;;;;;;;2.07;1.97;;;19.50;39.30;;;;;;4905521;28;20482;-84
2023/01/18 10:43:45;;;;;;;2.20;2.10;;;19.40;39.20;;;;;;4918071;28;20474;-84
2023/01/18 10:46:14;;;;;;;2.10;2.00;;;19.50;39.20;;;;;;4923198;28;20411;-84
2023/01/18 10:48:45;;;;;;;2.33;2.20;;;19.50;39.20;;;;;;4913683;28;20464;-85
2023/01/18 10:51:29;;;;;;;2.33;2.23;;;19.50;39.30;;;;;;4935728;28;20567;-85
2023/01/18 10:53:55;;;;;;;1.90;1.80;;;19.50;39.20;;;;;;4923943;28;20494;-85
2023/01/18 10:56:27;;;;;;;1.90;1.80;;;19.50;39.20;;;;;;4941534;28;20448;-85
2023/01/18 10:58:59;;;;;;;2.10;1.83;;;19.50;39.30;;;;;;4940934;28;20470;-85
2023/01/18 11:01:33;;;;;;;2.30;2.10;;;19.50;39.20;;;;;;4942414;28;20446;-85
2023/01/18 11:04:18;;;;;;;2.00;1.90;;;19.50;39.20;;;;;;4944573;28;21403;-85
2023/01/18 11:07:02;;;;;;;2.27;2.07;;;19.50;39.20;;;;;;4938265;28;20462;-85
2023/01/18 11:09:33;;;;;;;2.13;2.03;;;19.50;39.10;;;;;;4937603;28;20475;-85
2023/01/18 11:12:32;;;;;;;1.83;1.73;;;19.50;39.10;;;;;;4942101;28;20466;-85
2023/01/18 11:15:18;;;;;;;1.80;1.70;;;19.50;39.10;;;;;;4943589;28;20459;-85
2023/01/18 11:17:45;;;;;;;1.80;1.70;;;19.50;39.10;;;;;;4945080;28;20990;-85
2023/01/18 11:20:18;;;;;;;1.90;1.80;;;19.50;39.20;;;;;;4948016;28;20463;-84
2023/01/18 11:22:54;;;;;;;1.80;1.70;;;19.50;39.20;;;;;;4948588;28;20445;-85
2023/01/18 11:25:20;;;;;;;2.10;2.00;;;19.50;39.10;;;;;;4939647;28;20467;-84
2023/01/18 11:27:49;;;;;;;1.90;1.80;;;19.50;39.10;;;;;;4941513;28;20526;-85
2023/01/18 11:30:21;;;;;;;2.30;2.20;;;19.50;39.10;;;;;;4931581;28;21023;-85
2023/01/18 11:32:47;;;;;;;1.53;1.43;;;19.50;39.20;;;;;;4943072;28;20477;-85
2023/01/18 11:35:33;;;;;;;2.10;2.00;;;19.50;39.10;;;;;;4939213;28;20437;-85
2023/01/18 11:38:01;;;;;;;1.83;1.73;;;19.50;39.10;;;;;;4942997;28;21085;-85
2023/01/18 11:40:28;;;;;;;1.90;1.80;;;19.50;39.00;;;;;;4939394;28;20447;-85
2023/01/18 11:43:21;;;;;;;1.90;1.80;;;19.50;39.00;;;;;;4940994;28;20550;-85
2023/01/18 11:45:57;;;;;;;2.30;2.10;;;19.50;39.00;;;;;;4906706;28;20491;-85
2023/01/18 11:48:48;;;;;;;2.10;2.00;;;19.50;39.00;;;;;;4937849;28;20463;-84
2023/01/18 11:51:32;;;;;;;2.23;2.07;;;19.50;39.10;;;;;;4945408;28;21207;-85
2023/01/18 11:54:21;;;;;;;2.23;2.03;;;19.50;39.00;;;;;;4943911;28;20582;-85
2023/01/18 11:56:54;;;;;;;2.00;1.90;;;19.50;39.00;;;;;;4945423;28;20465;-85
2023/01/18 11:59:35;;;;;;;2.40;2.20;;;19.50;39.00;;;;;;4930851;28;20467;-85
2023/01/18 12:02:20;;;;;;;1.90;1.80;;;19.50;38.90;;;;;;4918933;28;20510;-84
2023/01/18 12:05:24;;;;;;;2.00;1.80;;;19.50;39.00;;;;;;4930498;28;20440;-85
2023/01/18 12:08:09;;;;;;;2.63;2.43;;;19.50;38.90;;;;;;4926404;28;21014;-85
2023/01/18 12:10:48;;;;;;;1.67;1.57;;;19.50;38.90;;;;;;4947450;28;20521;-85
2023/01/18 12:13:40;;;;;;;1.80;1.70;;;19.50;38.80;;;;;;4936739;28;21885;-84
2023/01/18 12:16:20;;;;;;;2.17;2.07;;;19.50;38.80;;;;;;4935250;28;20816;-85
2023/01/18 12:19:25;;;;;;;1.70;1.60;;;19.50;38.90;;;;;;4925327;28;20462;-85
2023/01/18 12:22:29;;;;;;;2.00;1.90;;;19.50;38.80;;;;;;4907393;28;21953;-84
2023/01/18 12:25:16;;;;;;;2.00;1.90;;;19.60;38.90;;;;;;4938975;28;20492;-84
2023/01/18 12:27:51;;;;;;;1.93;1.83;;;19.50;38.80;;;;;;4943439;28;20578;-85
2023/01/18 12:30:37;;;;;;;2.20;2.10;;;19.50;38.90;;;;;;4944967;28;20492;-85
2023/01/18 12:33:33;;;;;;;2.00;1.90;;;19.60;38.90;;;;;;4926140;28;20490;-84
2023/01/18 12:36:19;;;;;;;1.90;1.80;;;19.60;38.90;;;;;;4936933;28;20534;-84
2023/01/18 12:38:54;;;;;;;1.60;1.50;;;19.60;38.90;;;;;;4920084;28;20498;-84
2023/01/18 12:41:29;;;;;;;2.20;2.10;;;19.60;38.90;;;;;;4925844;28;20459;-84
2023/01/18 12:44:00;;;;;;;1.90;1.80;;;19.60;38.90;;;;;;4940325;28;21271;-84
2023/01/18 12:46:37;;;;;;;1.97;1.80;;;19.60;38.90;;;;;;4919854;28;20457;-84
2023/01/18 12:49:17;;;;;;;1.80;1.70;;;19.60;38.90;;;;;;4920796;28;20554;-84
2023/01/18 12:51:46;;;;;;;1.70;1.60;;;19.60;38.90;;;;;;4939905;28;20467;-84
2023/01/18 12:54:16;;;;;;;1.73;1.63;;;19.60;38.90;;;;;;4936883;28;20546;-84
2023/01/18 12:56:45;;;;;;;1.80;1.70;;;19.60;38.90;;;;;;4943451;28;20566;-84
2023/01/18 12:59:21;;;;;;;1.67;1.57;;;19.60;38.90;;;;;;4940800;28;20541;-84
2023/01/18 13:01:54;;;;;;;1.87;1.63;;;19.60;38.90;;;;;;4942518;28;20529;-84
2023/01/18 13:04:25;;;;;;;1.80;1.70;;;19.60;38.90;;;;;;4937115;28;21700;-84
2023/01/18 13:06:56;;;;;;;1.80;1.70;;;19.60;38.90;;;;;;4940395;28;20498;-84
2023/01/18 13:09:31;;;;;;;1.87;1.77;;;19.60;38.90;;;;;;4940917;28;20466;-84
2023/01/18 13:12:00;;;;;;;1.83;1.73;;;19.60;38.90;;;;;;4943114;28;20451;-84
2023/01/18 13:14:52;;;;;;;1.87;1.77;;;19.60;38.90;;;;;;4942811;28;20425;-84
2023/01/18 13:17:36;;;;;;;1.53;1.43;;;19.60;38.90;;;;;;4936235;28;21479;-84
2023/01/18 13:20:33;;;;;;;1.67;1.57;;;19.60;38.90;;;;;;4936965;28;20470;-84
2023/01/18 13:23:28;;;;;;;1.70;1.60;;;19.60;38.90;;;;;;4925064;28;20474;-84
2023/01/18 13:26:09;;;;;;;1.47;1.37;;;19.60;38.90;;;;;;4927154;28;20439;-84
2023/01/18 13:28:35;;;;;;;1.63;1.53;;;19.60;38.90;;;;;;4930798;28;20543;-84
2023/01/18 13:31:04;;;;;;;1.60;1.50;;;19.60;38.90;;;;;;4936510;28;20468;-84
2023/01/18 13:33:33;;;;;;;1.50;1.40;;;19.60;38.90;;;;;;4932894;28;20475;-86
2023/01/18 13:36:10;;;;;;;2.10;1.90;;;19.60;38.90;;;;;;4938685;28;21270;-84
2023/01/18 13:38:47;;;;;;;1.60;1.50;;;19.60;38.90;;;;;;4927824;28;20458;-85
2023/01/18 13:41:13;;;;;;;2.27;1.83;;;19.60;38.90;;;;;;4945844;28;20462;-84
2023/01/18 13:43:40;;;;;;;1.77;1.67;;;19.60;38.90;;;;;;4946408;28;20633;-85